Time;durP1;ratioP1;P1;durP2;ratioP2;P2;SDS_P1;SDS_P2;PMS_P1;PMS_P2;Temp;Humidity;BMP_temperature;BMP_pressure;BME280_temperature;BME280_humidity;BME280_pressure;Samples;Min_cycle;Max_cycle;Signal;HPM_P1;HPM_P2
2022/12/09 09:22:58;;;;;;;34.90;21.17;;;;;;;1.35;100.00;97757.09;5122016;27;20580;-84
2022/12/09 09:25:26;;;;;;;32.43;20.70;;;;;;;1.86;100.00;97753.06;5087460;28;40301;-82
2022/12/09 09:27:55;;;;;;;30.17;20.10;;;;;;;2.27;100.00;97725.91;5070209;28;40519;-79
2022/12/09 09:30:23;;;;;;;31.47;20.40;;;;;;;2.45;100.00;97687.63;5070850;28;42533;-80
2022/12/09 09:32:51;;;;;;;31.93;19.47;;;;;;;3.13;100.00;97746.94;5067290;28;42250;-81
2022/12/09 09:35:18;;;;;;;26.53;18.60;;;;;;;3.41;100.00;97728.06;5070391;28;39055;-81
2022/12/09 09:37:47;;;;;;;28.70;18.73;;;;;;;3.68;100.00;97736.25;5069592;28;42038;-80
2022/12/09 09:40:16;;;;;;;25.67;18.37;;;;;;;3.97;100.00;97743.38;5071083;28;42969;-79
2022/12/09 09:42:47;;;;;;;25.93;18.07;;;;;;;3.82;95.78;97723.28;5076349;28;41412;-79
2022/12/09 09:45:19;;;;;;;27.30;18.80;;;;;;;4.14;95.94;97759.97;5094818;28;40472;-78
2022/12/09 09:47:52;;;;;;;26.30;18.10;;;;;;;4.07;93.03;97727.19;5078725;28;40818;-81
2022/12/09 09:50:30;;;;;;;26.23;17.63;;;;;;;4.38;92.50;97747.31;5081454;28;42867;-81
2022/12/09 09:53:00;;;;;;;27.93;18.03;;;;;;;4.61;92.60;97742.47;5058155;28;42294;-80
2022/12/09 09:55:42;;;;;;;24.33;17.33;;;;;;;4.75;88.65;97751.34;5052188;28;40069;-80
2022/12/09 09:58:16;;;;;;;24.70;16.97;;;;;;;4.77;87.58;97734.59;5085344;28;42458;-78
2022/12/09 10:00:52;;;;;;;24.23;17.23;;;;;;;5.00;88.27;97747.22;5069347;28;41581;-79
2022/12/09 10:03:31;;;;;;;26.00;18.47;;;;;;;5.00;85.87;97746.38;5085513;28;43125;-80
2022/12/09 10:06:06;;;;;;;23.70;16.67;;;;;;;5.07;86.74;97727.56;5069643;28;39262;-80
2022/12/09 10:08:43;;;;;;;23.80;16.37;;;;;;;5.29;85.92;97747.31;5069906;28;41688;-79
2022/12/09 10:11:20;;;;;;;25.53;17.67;;;;;;;5.31;84.80;97735.78;5086462;28;41671;-80
2022/12/09 10:13:54;;;;;;;23.77;16.90;;;;;;;5.80;82.78;97732.84;5086414;28;41618;-79
2022/12/09 10:16:25;;;;;;;24.37;17.50;;;;;;;5.95;82.17;97745.03;5068982;28;41404;-80
2022/12/09 10:19:04;;;;;;;22.43;16.90;;;;;;;6.05;81.36;97748.81;5086670;28;41255;-80
2022/12/09 10:21:33;;;;;;;25.30;17.00;;;;;;;5.55;79.69;97675.72;5068717;28;41696;-78
2022/12/09 10:24:17;;;;;;;25.07;17.27;;;;;;;5.58;80.78;97658.91;5070342;28;41905;-80
2022/12/09 10:26:58;;;;;;;21.57;15.73;;;;;;;6.18;80.23;97734.91;5068882;28;40366;-80
2022/12/09 10:29:38;;;;;;;22.03;16.63;;;;;;;6.08;77.36;97727.56;5066484;28;40849;-81
2022/12/09 10:32:14;;;;;;;27.50;19.17;;;;;;;6.10;77.65;97712.56;5068864;28;41697;-82
2022/12/09 10:34:43;;;;;;;27.27;19.63;;;;;;;6.31;77.09;97730.53;5055713;28;40941;-82
2022/12/09 10:37:25;;;;;;;20.90;16.13;;;;;;;6.40;76.41;97728.19;5036779;28;39524;-82
2022/12/09 10:40:00;;;;;;;21.63;14.93;;;;;;;6.40;75.50;97712.41;5036775;28;41108;-81
2022/12/09 10:45:34;;;;;;;19.03;15.90;;;;;;;6.74;73.90;97716.34;5056975;28;42425;-81
2022/12/09 10:48:19;;;;;;;19.67;16.23;;;;;;;6.99;71.49;97756.84;5036211;28;39906;-83
2022/12/09 10:50:46;;;;;;;20.07;14.97;;;;;;;6.95;72.51;97744.81;5038099;28;41303;-82
2022/12/09 10:53:46;;;;;;;20.10;14.93;;;;;;;7.17;73.49;97747.75;5055379;28;41960;-81
2022/12/09 10:56:19;;;;;;;19.00;14.97;;;;;;;7.29;73.41;97736.38;5133184;27;42879;-85
2022/12/09 10:58:49;;;;;;;21.10;17.00;;;;;;;7.37;71.47;97746.38;5132981;27;40372;-80
2022/12/09 11:01:17;;;;;;;20.90;15.33;;;;;;;7.34;72.30;97718.47;5127260;27;41593;-80
2022/12/09 11:03:48;;;;;;;22.23;15.63;;;;;;;7.44;72.49;97716.88;5096953;28;42137;-79
2022/12/09 11:06:25;;;;;;;21.33;15.90;;;;;;;7.43;69.26;97749.44;5117378;27;43094;-83
2022/12/09 11:09:23;;;;;;;21.93;15.90;;;;;;;7.39;70.34;97729.53;5134343;27;40051;-79
2022/12/09 11:11:51;;;;;;;17.37;14.13;;;;;;;7.44;69.79;97734.47;5120431;27;42681;-81
2022/12/09 11:14:48;;;;;;;20.10;15.57;;;;;;;7.22;68.93;97724.56;5110646;28;42821;-80
2022/12/09 11:17:19;;;;;;;20.53;15.17;;;;;;;7.20;70.12;97726.44;5110888;28;42795;-80
2022/12/09 11:19:50;;;;;;;18.57;14.60;;;;;;;7.05;70.75;97701.97;5096850;28;39474;-81
2022/12/09 11:22:34;;;;;;;19.83;14.60;;;;;;;7.18;71.34;97718.66;5110886;27;41732;-79
2022/12/09 11:25:18;;;;;;;20.40;14.50;;;;;;;7.10;70.13;97706.94;5110477;28;44018;-80
2022/12/09 11:27:50;;;;;;;18.70;13.73;;;;;;;7.15;70.35;97712.75;5132009;27;41243;-80
2022/12/09 11:30:21;;;;;;;18.53;14.77;;;;;;;7.00;69.10;97705.88;5132209;27;41180;-79
2022/12/09 11:32:58;;;;;;;19.83;15.00;;;;;;;6.95;69.24;97708.81;5111035;27;42229;-85
2022/12/09 11:35:31;;;;;;;22.40;15.67;;;;;;;6.93;68.33;97712.47;5108547;28;43206;-79
2022/12/09 11:38:02;;;;;;;25.80;16.53;;;;;;;6.92;68.53;97723.97;5111998;27;42195;-84
2022/12/09 11:40:31;;;;;;;20.20;14.60;;;;;;;6.78;68.34;97723.09;5111044;28;40261;-79
2022/12/09 11:42:59;;;;;;;18.87;15.13;;;;;;;6.74;69.55;97721.59;5113066;27;41545;-86
2022/12/09 11:45:31;;;;;;;21.67;16.00;;;;;;;6.56;69.58;97701.72;5134147;27;42481;-81
2022/12/09 11:48:07;;;;;;;20.07;15.47;;;;;;;6.58;69.75;97714.78;5108924;28;42494;-84
2022/12/09 11:50:40;;;;;;;17.10;14.20;;;;;;;6.57;70.27;97713.94;5110145;28;39976;-87
2022/12/09 11:53:23;;;;;;;20.57;14.77;;;;;;;6.56;70.00;97706.16;5111547;27;41818;-82
2022/12/09 11:55:53;;;;;;;20.40;14.90;;;;;;;6.59;70.96;97701.53;5114179;28;42694;-80
2022/12/09 11:58:25;;;;;;;17.40;14.03;;;;;;;6.66;71.55;97696.75;5123417;27;41809;-81
2022/12/09 12:01:00;;;;;;;19.33;14.10;;;;;;;6.70;70.28;97704.31;5131558;27;39999;-85
2022/12/09 12:03:36;;;;;;;20.30;14.10;;;;;;;6.61;70.28;97672.50;5121156;27;42756;-83
2022/12/09 12:06:08;;;;;;;18.70;14.57;;;;;;;6.65;69.30;97674.84;5109548;28;42801;-83
2022/12/09 12:08:43;;;;;;;20.37;15.57;;;;;;;6.64;68.87;97685.47;5106993;27;41242;-83
2022/12/09 12:11:26;;;;;;;22.90;15.83;;;;;;;6.40;68.66;97680.00;5130348;27;40915;-84
2022/12/09 12:14:01;;;;;;;22.07;13.87;;;;;;;6.33;69.54;97683.97;5100345;28;40863;-87
2022/12/09 12:16:36;;;;;;;21.13;14.97;;;;;;;6.05;69.57;97654.22;5110026;28;42974;-84
2022/12/09 12:19:13;;;;;;;18.80;14.57;;;;;;;6.02;70.05;97670.16;5111510;27;40908;-84
2022/12/09 12:21:56;;;;;;;21.13;14.80;;;;;;;5.95;70.75;97662.75;5130468;27;39821;-82
2022/12/09 12:24:41;;;;;;;18.93;13.83;;;;;;;5.80;71.25;97661.91;5110706;27;42917;-86
2022/12/09 12:27:22;;;;;;;17.73;13.57;;;;;;;5.77;71.28;97670.81;5095653;28;42561;-82
2022/12/09 12:29:59;;;;;;;18.57;14.23;;;;;;;5.66;71.65;97661.91;5095242;28;41858;-81
2022/12/09 12:32:59;;;;;;;19.13;13.77;;;;;;;5.67;72.06;97663.59;5112059;27;41065;-82
2022/12/09 12:35:54;;;;;;;19.33;14.07;;;;;;;5.45;71.92;97658.81;5132745;27;42709;-83
2022/12/09 12:38:32;;;;;;;19.07;14.03;;;;;;;5.40;72.51;97661.72;5121618;27;43901;-81
2022/12/09 12:41:08;;;;;;;19.13;13.77;;;;;;;5.35;72.67;97663.78;5095135;28;42059;-78
2022/12/09 12:46:54;;;;;;;20.37;14.47;;;;;;;5.25;73.56;97657.41;5129788;27;41561;-81
2022/12/09 12:49:38;;;;;;;20.07;15.23;;;;;;;5.25;73.50;97652.16;5111075;27;42969;-82
2022/12/09 12:52:19;;;;;;;20.37;14.83;;;;;;;5.27;73.99;97650.28;5107336;28;42214;-80
2022/12/09 12:54:58;;;;;;;21.90;15.30;;;;;;;5.25;74.18;97640.81;5110826;28;39143;-79
2022/12/09 12:57:34;;;;;;;19.80;13.93;;;;;;;5.22;74.09;97636.59;5121221;27;41976;-81
2022/12/09 13:00:07;;;;;;;21.90;14.90;;;;;;;5.23;73.66;97651.41;5108270;27;42732;-82
2022/12/09 13:02:43;;;;;;;24.93;17.43;;;;;;;5.22;73.93;97640.97;5123064;27;42561;-84
2022/12/09 13:05:20;;;;;;;23.30;15.83;;;;;;;5.27;74.05;97654.69;5130584;27;41077;-82
2022/12/09 13:07:56;;;;;;;24.73;17.23;;;;;;;5.26;74.31;97643.34;5110414;27;41813;-86
2022/12/09 13:10:31;;;;;;;27.83;17.93;;;;;;;5.16;74.51;97631.72;5108249;28;43707;-86
2022/12/09 13:13:01;;;;;;;31.13;20.67;;;;;;;5.15;74.49;97630.03;5128208;27;42191;-84
2022/12/09 13:15:33;;;;;;;29.97;18.17;;;;;;;5.31;74.20;97643.91;5132622;27;40477;-84
2022/12/09 13:18:07;;;;;;;24.80;16.77;;;;;;;5.43;74.72;97623.09;5114434;27;42068;-85
2022/12/09 13:20:43;;;;;;;29.63;20.00;;;;;;;5.38;74.64;97620.75;5110026;28;42763;-81
2022/12/09 13:23:26;;;;;;;26.17;16.73;;;;;;;5.48;73.72;97634.16;5130279;27;42085;-83
2022/12/09 13:26:06;;;;;;;17.23;13.83;;;;;;;5.46;73.29;97634.25;5132180;27;39074;-85
2022/12/09 13:28:43;;;;;;;21.30;16.03;;;;;;;5.34;73.13;97625.34;5131685;27;43720;-85
2022/12/09 13:31:11;;;;;;;35.17;23.13;;;;;;;5.38;73.53;97633.88;5128068;27;43150;-81
2022/12/09 13:33:48;;;;;;;22.63;17.80;;;;;;;5.36;73.43;97626.09;5111683;28;42258;-84
2022/12/09 13:36:21;;;;;;;21.17;14.67;;;;;;;5.30;73.79;97613.34;5110290;27;40295;-83
2022/12/09 13:38:50;;;;;;;18.07;12.70;;;;;;;5.26;72.93;97614.47;5133433;27;41763;-81
2022/12/09 13:44:37;;;;;;;16.10;11.60;;;;;;;5.34;73.21;97637.63;5054772;27;42667;-84
2022/12/09 13:47:34;;;;;;;16.77;12.03;;;;;;;5.35;73.56;97629.66;5118454;27;40059;-85
2022/12/09 13:50:05;;;;;;;15.03;11.53;;;;;;;5.25;73.34;97610.16;5114442;27;41473;-83
2022/12/09 13:52:43;;;;;;;15.03;11.50;;;;;;;5.25;72.92;97631.16;5100914;27;42953;-82
2022/12/09 13:55:30;;;;;;;14.23;11.33;;;;;;;5.28;73.22;97633.59;5109628;28;42106;-80
2022/12/09 13:58:07;;;;;;;14.93;11.43;;;;;;;5.18;72.99;97608.84;5110151;27;41074;-81
2022/12/09 14:00:35;;;;;;;16.47;11.30;;;;;;;5.28;73.03;97620.47;5108058;28;42486;-81
2022/12/09 14:03:18;;;;;;;16.67;12.83;;;;;;;5.17;72.96;97601.06;5127996;27;43758;-82
2022/12/09 14:05:47;;;;;;;17.90;12.80;;;;;;;5.24;72.79;97623.38;5132757;27;43185;-83
2022/12/09 14:08:22;;;;;;;17.93;12.50;;;;;;;5.22;72.92;97620.84;5113649;27;40178;-82
2022/12/09 14:10:51;;;;;;;16.50;11.87;;;;;;;5.14;73.09;97601.25;5111416;28;41595;-80
2022/12/09 14:13:28;;;;;;;16.77;12.10;;;;;;;5.28;72.80;97609.97;5133954;27;42751;-85
2022/12/09 14:16:33;;;;;;;15.20;11.77;;;;;;;5.14;72.85;97596.84;5133100;27;42486;-81
2022/12/09 14:19:36;;;;;;;16.50;12.33;;;;;;;5.28;73.14;97614.38;5135149;27;39916;-81
2022/12/09 14:22:33;;;;;;;15.70;11.57;;;;;;;5.25;72.04;97620.66;5124446;27;41738;-79
2022/12/09 14:25:34;;;;;;;16.13;11.10;;;;;;;5.20;72.56;97622.69;5111301;28;43379;-83
2022/12/09 14:28:25;;;;;;;15.80;12.00;;;;;;;5.19;72.91;97626.28;5112666;27;42568;-82
2022/12/09 14:30:57;;;;;;;14.60;11.47;;;;;;;5.17;72.83;97625.53;5115299;28;40150;-82
2022/12/09 14:33:31;;;;;;;18.87;13.90;;;;;;;5.02;73.04;97602.84;5113375;28;42484;-80
2022/12/09 14:36:04;;;;;;;31.30;20.53;;;;;;;5.15;73.12;97630.03;5111810;27;42691;-81
2022/12/09 14:38:41;;;;;;;25.77;17.30;;;;;;;5.14;72.59;97630.13;5096513;28;41523;-81
2022/12/09 14:41:22;;;;;;;22.57;16.23;;;;;;;5.12;73.01;97639.84;5112278;27;40098;-81
2022/12/09 14:44:07;;;;;;;20.23;14.43;;;;;;;4.91;72.95;97615.75;5135865;27;43347;-81
2022/12/09 14:46:36;;;;;;;20.43;12.27;;;;;;;5.01;72.56;97649.22;5128648;27;43015;-86
2022/12/09 14:49:13;;;;;;;16.73;11.27;;;;;;;5.03;72.91;97657.00;5096788;28;42158;-80
2022/12/09 14:51:46;;;;;;;17.27;11.60;;;;;;;5.01;73.49;97654.47;5116262;27;40446;-79
2022/12/09 14:54:17;;;;;;;16.07;11.70;;;;;;;4.77;73.42;97619.19;5131681;27;41651;-84
2022/12/09 14:56:48;;;;;;;15.63;11.50;;;;;;;4.97;73.50;97641.59;5109673;27;41741;-81
2022/12/09 14:59:20;;;;;;;16.17;11.93;;;;;;;4.88;73.94;97642.16;5113847;28;42839;-80
2022/12/09 15:01:50;;;;;;;15.87;12.67;;;;;;;4.97;74.44;97652.09;5117704;27;40293;-86
2022/12/09 15:04:24;;;;;;;17.93;13.53;;;;;;;4.89;74.41;97649.09;5134703;27;41449;-81
2022/12/09 15:07:14;;;;;;;16.77;11.90;;;;;;;4.93;74.73;97655.88;5109320;27;41959;-85
2022/12/09 15:09:50;;;;;;;18.63;13.07;;;;;;;4.77;74.72;97634.09;5113506;28;42414;-85
2022/12/09 15:12:18;;;;;;;18.83;13.70;;;;;;;4.88;74.83;97647.41;5111170;27;40013;-85
2022/12/09 15:14:52;;;;;;;19.40;14.57;;;;;;;4.83;75.02;97654.69;5113635;28;42657;-82
2022/12/09 15:17:25;;;;;;;17.20;13.13;;;;;;;4.53;75.08;97605.75;5124578;27;42081;-84
2022/12/09 15:19:53;;;;;;;15.50;12.97;;;;;;;4.42;75.62;97592.41;5130998;27;42518;-86
2022/12/09 15:22:23;;;;;;;18.63;13.93;;;;;;;4.77;75.81;97660.31;5121423;27;40045;-87
2022/12/09 15:24:52;;;;;;;16.57;12.23;;;;;;;4.72;75.84;97647.44;5113635;28;41754;-83
2022/12/09 15:27:22;;;;;;;20.40;14.47;;;;;;;4.69;76.14;97643.25;5094313;28;42057;-81
2022/12/09 15:29:52;;;;;;;15.53;12.70;;;;;;;4.68;76.09;97651.22;5111342;28;42359;-82
2022/12/09 15:32:24;;;;;;;16.00;11.30;;;;;;;4.66;76.46;97651.28;5113204;28;40051;-82
2022/12/09 15:34:53;;;;;;;15.73;11.33;;;;;;;4.61;76.21;97648.06;5111326;28;42407;-81
2022/12/09 15:37:25;;;;;;;15.97;12.00;;;;;;;4.48;76.40;97639.22;5112695;28;42772;-81
2022/12/09 15:39:59;;;;;;;18.53;13.13;;;;;;;4.49;76.52;97645.31;5110384;28;42642;-80
2022/12/09 15:42:29;;;;;;;15.67;11.63;;;;;;;4.51;76.64;97652.16;5111621;28;40003;-81
2022/12/09 15:45:04;;;;;;;17.97;12.27;;;;;;;4.49;76.81;97646.16;5111715;28;41833;-81
2022/12/09 15:47:37;;;;;;;16.70;12.23;;;;;;;4.33;76.84;97630.47;5111515;28;43122;-80
2022/12/09 15:50:14;;;;;;;16.67;12.07;;;;;;;4.11;76.76;97598.56;5110719;28;42461;-81
